Aslo, Minnesota
Current Conditions -  °F | °C
As of 10:13 AM on Thursday 23 Oct 2014 (Local Time) from KMZH Reporting Station
Haze Haze  
Wind Chill: 50°   Ceiling: 200
Heat Index: 50°   Visibility: 1.5mi
Dew Point: 48°   Wind: 5mph
Humidity: 94%   Direction: 220°SW
Pressure: 29.96"   Gusts: NA
Location:  46.2004°N, 92.675°W
Report Text: KMZH 231513Z AUTO 22004KT 1 1/2SM BR OVC002 10/09 A2996 RMK AO2
Loading
Personal Weather Stations






























Interactive Weather Map New forecast layout! Learn more

10-Day Weather Forecast

Advertisements
Track Severe Weather on mobile